createdAt,value
2022-09-23T00:01:03.721Z,71.38
2022-09-23T00:03:31.866Z,71.46
2022-09-23T00:06:04.266Z,71.53
2022-09-23T00:08:31.195Z,71.67
2022-09-23T00:10:57.913Z,72.71
2022-09-23T00:13:25.464Z,72.40
2022-09-23T00:15:52.180Z,71.92
2022-09-23T00:18:20.554Z,71.51
2022-09-23T00:20:47.428Z,72.24
2022-09-23T00:23:13.870Z,71.88
2022-09-23T00:25:40.414Z,73.58
2022-09-23T00:28:07.042Z,72.69
2022-09-23T00:30:34.051Z,72.71
2022-09-23T00:33:00.931Z,73.35
2022-09-23T00:35:27.709Z,73.66
2022-09-23T00:37:54.154Z,73.52
2022-09-23T00:40:20.856Z,73.65
2022-09-23T00:42:52.087Z,72.99
2022-09-23T00:45:19.163Z,73.46
2022-09-23T00:47:55.217Z,73.12
2022-09-23T00:50:30.257Z,73.17
2022-09-23T00:52:59.374Z,73.28
2022-09-23T00:55:31.791Z,73.59
2022-09-23T00:58:01.368Z,73.42
2022-09-23T01:00:27.899Z,73.69
2022-09-23T01:02:55.410Z,72.58
2022-09-23T01:05:22.109Z,72.89
2022-09-23T01:07:49.977Z,74.25
2022-09-23T01:10:18.316Z,74.10
2022-09-23T01:13:12.283Z,74.24
2022-09-23T01:15:48.453Z,73.75
2022-09-23T01:18:29.737Z,73.52
2022-09-23T01:21:06.236Z,73.44
2022-09-23T01:23:54.185Z,73.31
2022-09-23T01:26:48.658Z,73.34
2022-09-23T01:29:46.048Z,73.08
2022-09-23T01:32:41.030Z,73.08
2022-09-23T01:35:26.649Z,73.63
2022-09-23T01:38:06.449Z,73.39
2022-09-23T01:41:12.510Z,73.36
2022-09-23T01:44:02.782Z,73.74
2022-09-23T01:46:54.501Z,73.46
2022-09-23T01:49:43.727Z,74.10
2022-09-23T01:52:18.608Z,74.21
2022-09-23T01:55:20.945Z,74.24
2022-09-23T01:57:55.457Z,74.09
2022-09-23T02:00:24.042Z,74.46
2022-09-23T02:02:59.390Z,74.30
2022-09-23T02:05:39.930Z,74.58
2022-09-23T02:08:16.862Z,74.21
2022-09-23T02:10:52.070Z,74.17
2022-09-23T02:13:34.376Z,74.09
2022-09-23T02:16:08.598Z,74.16
2022-09-23T02:18:46.183Z,74.00
2022-09-23T02:21:15.672Z,73.89
2022-09-23T02:23:52.950Z,74.21
2022-09-23T02:26:31.770Z,74.90
2022-09-23T02:29:30.337Z,75.53
2022-09-23T02:32:25.059Z,75.87
2022-09-23T02:35:18.043Z,75.52
2022-09-23T02:38:02.760Z,75.50
2022-09-23T02:40:51.057Z,75.79
2022-09-23T02:43:32.128Z,75.97
2022-09-23T02:45:58.828Z,75.71
2022-09-23T02:48:32.110Z,75.76
2022-09-23T02:51:02.446Z,75.80
2022-09-23T02:53:30.457Z,75.79
2022-09-23T02:55:56.904Z,75.54
2022-09-23T02:58:23.475Z,75.25
2022-09-23T03:01:19.445Z,75.22
2022-09-23T03:04:05.400Z,75.30
2022-09-23T03:07:03.783Z,75.06
2022-09-23T03:09:38.362Z,75.45
2022-09-23T03:12:32.341Z,75.32
2022-09-23T03:15:09.665Z,75.57
2022-09-23T03:18:12.946Z,75.72
2022-09-23T03:20:50.308Z,75.66
2022-09-23T03:23:25.369Z,75.70
2022-09-23T03:25:54.994Z,75.75
2022-09-23T03:28:23.200Z,76.03
2022-09-23T03:30:52.113Z,76.77
2022-09-23T03:33:26.752Z,76.21
2022-09-23T03:36:18.186Z,76.25
2022-09-23T03:38:48.594Z,75.88
2022-09-23T03:41:23.178Z,76.10
2022-09-23T03:43:49.841Z,76.09
2022-09-23T03:46:17.663Z,76.03
2022-09-23T03:48:45.506Z,75.99
2022-09-23T03:51:22.756Z,75.79
2022-09-23T03:53:52.706Z,75.92
2022-09-23T03:56:19.160Z,75.88
2022-09-23T03:58:46.608Z,76.44
2022-09-23T04:01:14.749Z,76.43
2022-09-23T04:03:41.807Z,76.49
2022-09-23T04:06:08.665Z,77.05
2022-09-23T04:08:35.245Z,77.13
2022-09-23T04:11:03.638Z,77.24
2022-09-23T04:13:31.722Z,77.58
2022-09-23T04:15:58.417Z,76.81
2022-09-23T04:18:25.160Z,76.90
2022-09-23T04:20:51.701Z,76.83
2022-09-23T04:23:18.185Z,77.18
2022-09-23T04:25:49.106Z,76.53
2022-09-23T04:28:16.034Z,76.66
2022-09-23T04:30:43.700Z,76.79
2022-09-23T04:33:11.248Z,76.58
2022-09-23T04:35:43.582Z,77.25
2022-09-23T04:38:13.298Z,77.02
2022-09-23T04:40:40.018Z,76.65
2022-09-23T04:43:10.536Z,76.94
2022-09-23T04:45:39.386Z,76.67
2022-09-23T04:48:05.834Z,77.24
2022-09-23T04:50:33.945Z,77.57
2022-09-23T04:53:00.599Z,77.06
2022-09-23T04:55:27.176Z,77.35
2022-09-23T04:57:53.742Z,77.34
2022-09-23T05:00:21.163Z,77.74
2022-09-23T05:02:49.690Z,77.45
2022-09-23T05:05:22.301Z,77.40
2022-09-23T05:07:49.159Z,76.97
2022-09-23T05:10:16.634Z,76.91
2022-09-23T05:12:43.754Z,76.94
2022-09-23T05:15:10.235Z,76.93
2022-09-23T05:17:37.403Z,76.97
2022-09-23T05:20:05.345Z,76.91
2022-09-23T05:22:32.025Z,77.12
2022-09-23T05:25:00.291Z,77.58
2022-09-23T05:27:27.245Z,77.62
2022-09-23T05:29:53.866Z,77.45
2022-09-23T05:32:21.341Z,77.60
2022-09-23T05:34:47.867Z,78.01
2022-09-23T05:37:14.318Z,77.99
2022-09-23T05:39:40.790Z,77.83
2022-09-23T05:42:07.362Z,78.13
2022-09-23T05:44:33.905Z,77.65
2022-09-23T05:47:00.452Z,78.38
2022-09-23T05:49:48.373Z,78.15
2022-09-23T05:52:13.538Z,78.13
2022-09-23T05:54:40.843Z,78.02
2022-09-23T05:57:07.339Z,78.49
2022-09-23T05:59:33.876Z,78.23
2022-09-23T06:02:01.864Z,78.27
2022-09-23T06:04:29.990Z,78.15
2022-09-23T06:07:00.268Z,78.39
2022-09-23T06:09:34.148Z,78.20
2022-09-23T06:12:03.018Z,77.74
2022-09-23T06:14:29.569Z,78.42
2022-09-23T06:16:56.122Z,78.27
2022-09-23T06:19:22.565Z,77.88
2022-09-23T06:21:49.606Z,77.74
2022-09-23T06:24:20.562Z,78.19
2022-09-23T06:26:49.050Z,78.22
2022-09-23T06:29:15.494Z,77.95
2022-09-23T06:31:43.535Z,77.82
2022-09-23T06:34:16.412Z,78.04
2022-09-23T06:36:45.752Z,77.92
2022-09-23T06:39:13.998Z,77.80
2022-09-23T06:41:40.540Z,78.27
2022-09-23T06:44:07.219Z,77.92
2022-09-23T06:46:34.036Z,77.80
2022-09-23T06:49:02.058Z,77.51
2022-09-23T06:51:28.545Z,77.17
2022-09-23T06:53:55.645Z,76.99
2022-09-23T06:56:23.016Z,77.34
2022-09-23T06:58:51.685Z,76.96
2022-09-23T07:01:19.783Z,76.77
2022-09-23T07:03:48.181Z,76.63
2022-09-23T07:06:15.119Z,76.27
2022-09-23T07:08:47.220Z,76.05
2022-09-23T07:11:15.439Z,76.06
2022-09-23T07:13:42.655Z,75.89
2022-09-23T07:16:11.126Z,75.51
2022-09-23T07:18:38.208Z,75.15
2022-09-23T07:21:15.353Z,75.14
2022-09-23T07:23:43.320Z,75.24
2022-09-23T07:26:10.052Z,74.66
2022-09-23T07:28:37.166Z,74.44
2022-09-23T07:31:09.505Z,73.77
2022-09-23T07:33:37.865Z,73.70
2022-09-23T07:36:10.085Z,72.93
2022-09-23T07:38:41.502Z,72.88
2022-09-23T07:41:13.018Z,72.82
2022-09-23T07:43:39.727Z,72.51
2022-09-23T07:46:17.831Z,71.97
2022-09-23T07:48:45.992Z,72.14
2022-09-23T07:51:18.524Z,71.77
2022-09-23T07:53:50.561Z,72.05
2022-09-23T07:56:21.976Z,72.34
2022-09-23T07:58:59.939Z,72.21
2022-09-23T08:01:29.466Z,72.32
2022-09-23T08:04:03.249Z,72.08
2022-09-23T08:06:30.125Z,71.80
2022-09-23T08:09:00.897Z,71.55
2022-09-23T08:11:27.989Z,71.58
2022-09-23T08:13:54.979Z,71.26
2022-09-23T08:16:22.207Z,71.14
2022-09-23T08:18:49.416Z,71.08
2022-09-23T08:21:22.839Z,70.81
2022-09-23T08:23:49.992Z,71.14
2022-09-23T08:26:21.473Z,70.39
2022-09-23T08:28:48.989Z,70.50
2022-09-23T08:31:15.581Z,69.97
2022-09-23T08:33:42.173Z,69.26
2022-09-23T08:36:08.933Z,69.02
2022-09-23T08:38:35.758Z,68.57
2022-09-23T08:41:36.343Z,68.54
2022-09-23T08:44:27.003Z,67.29
2022-09-23T08:47:18.876Z,67.27
2022-09-23T08:49:57.499Z,67.46
2022-09-23T08:52:49.166Z,66.83
2022-09-23T08:55:16.314Z,66.35
2022-09-23T08:58:23.934Z,66.11
2022-09-23T09:00:54.347Z,65.44
2022-09-23T09:03:31.417Z,65.21
2022-09-23T09:05:58.917Z,64.82
2022-09-23T09:08:32.595Z,64.32
2022-09-23T09:11:00.014Z,64.19
2022-09-23T09:13:43.921Z,63.33
2022-09-23T09:17:01.171Z,63.42
2022-09-23T09:19:47.397Z,63.51
2022-09-23T09:22:19.865Z,63.02
2022-09-23T09:24:49.178Z,62.23
2022-09-23T09:27:15.645Z,62.04
2022-09-23T09:29:50.002Z,61.98
2022-09-23T09:32:29.433Z,61.46
2022-09-23T09:35:05.593Z,60.96
2022-09-23T09:37:44.528Z,60.54
2022-09-23T09:40:20.197Z,60.40
2022-09-23T09:42:49.446Z,59.22
2022-09-23T09:45:59.084Z,59.41
2022-09-23T09:48:41.733Z,58.98
2022-09-23T09:51:21.498Z,59.59
2022-09-23T09:53:52.045Z,58.99
2022-09-23T09:56:22.983Z,57.03
2022-09-23T09:58:49.316Z,56.57
2022-09-23T10:01:23.599Z,54.44
2022-09-23T10:04:03.672Z,55.59
2022-09-23T10:06:35.891Z,53.65
2022-09-23T10:09:02.439Z,52.78
2022-09-23T10:11:30.070Z,52.34
2022-09-23T10:14:00.264Z,51.13
2022-09-23T10:16:27.766Z,50.46
2022-09-23T10:18:57.028Z,50.57
2022-09-23T10:21:27.980Z,51.66
2022-09-23T10:24:01.584Z,50.76
2022-09-23T10:26:32.995Z,51.19
2022-09-23T10:29:05.055Z,50.11
2022-09-23T10:31:33.583Z,50.58
2022-09-23T10:34:02.070Z,50.04
2022-09-23T10:36:31.390Z,51.52
2022-09-23T10:39:20.019Z,51.16
2022-09-23T10:42:17.972Z,50.37
2022-09-23T10:45:22.061Z,50.42
2022-09-23T10:47:58.907Z,50.26
2022-09-23T10:50:42.171Z,50.36
2022-09-23T10:53:42.960Z,50.57
2022-09-23T10:56:15.708Z,51.00
2022-09-23T10:59:06.636Z,51.81
2022-09-23T11:01:49.103Z,51.62
2022-09-23T11:04:40.740Z,52.22
2022-09-23T11:07:10.555Z,51.91
2022-09-23T11:10:02.561Z,52.28
2022-09-23T11:12:56.613Z,52.41
2022-09-23T11:15:39.431Z,53.10
2022-09-23T11:18:31.546Z,53.79
2022-09-23T11:21:07.177Z,52.54
2022-09-23T11:24:04.968Z,52.95
2022-09-23T11:27:10.583Z,52.97
2022-09-23T11:30:07.458Z,52.47
2022-09-23T11:32:55.568Z,53.26
2022-09-23T11:35:35.760Z,53.08
2022-09-23T11:38:11.180Z,52.95
2022-09-23T11:40:45.638Z,52.77
2022-09-23T11:43:23.492Z,52.31
2022-09-23T11:46:25.673Z,52.61
2022-09-23T11:49:05.038Z,52.80
2022-09-23T11:51:43.777Z,52.96
2022-09-23T11:54:44.240Z,52.21
2022-09-23T11:57:20.931Z,52.32
2022-09-23T11:59:55.038Z,51.11
2022-09-23T12:03:01.678Z,50.91
2022-09-23T12:05:39.789Z,51.02
2022-09-23T12:08:06.505Z,51.16
2022-09-23T12:10:55.994Z,51.18
2022-09-23T12:13:56.514Z,51.10
2022-09-23T12:16:28.393Z,50.30
2022-09-23T12:19:01.167Z,50.37
2022-09-23T12:22:21.590Z,50.14
2022-09-23T12:24:57.968Z,50.02
2022-09-23T12:27:37.972Z,49.93
2022-09-23T12:30:26.952Z,49.83
2022-09-23T12:33:07.762Z,50.40
2022-09-23T12:35:41.510Z,50.37
2022-09-23T12:38:20.249Z,49.72
2022-09-23T12:40:47.804Z,49.57
2022-09-23T12:43:31.427Z,49.25
2022-09-23T12:46:23.469Z,49.94
2022-09-23T12:49:02.078Z,49.94
2022-09-23T12:51:35.092Z,48.65
2022-09-23T12:54:04.514Z,49.18
2022-09-23T12:56:34.033Z,49.49
2022-09-23T12:59:15.965Z,49.74
2022-09-23T13:01:43.491Z,49.84
2022-09-23T13:04:51.030Z,48.64
2022-09-23T13:07:23.473Z,48.74
2022-09-23T13:09:52.892Z,48.84
2022-09-23T13:12:32.150Z,49.10
2022-09-23T13:15:03.647Z,48.22
2022-09-23T13:17:32.474Z,48.27
2022-09-23T13:20:05.256Z,46.17
2022-09-23T13:22:51.991Z,46.13
2022-09-23T13:25:24.382Z,45.83
2022-09-23T13:27:55.335Z,46.19
2022-09-23T13:30:26.626Z,45.70
2022-09-23T13:33:18.065Z,45.32
2022-09-23T13:35:53.485Z,45.46
2022-09-23T13:38:26.097Z,46.03
2022-09-23T13:40:55.998Z,46.91
2022-09-23T13:43:27.578Z,46.52
2022-09-23T13:45:55.201Z,47.01
2022-09-23T13:48:25.575Z,47.07
2022-09-23T13:50:56.073Z,46.94
2022-09-23T13:53:24.989Z,48.67
2022-09-23T13:56:01.958Z,47.94
2022-09-23T13:58:30.737Z,47.97
2022-09-23T14:00:58.103Z,47.38
2022-09-23T14:03:29.374Z,47.60
2022-09-23T14:06:12.909Z,47.62
2022-09-23T14:08:41.494Z,47.60
2022-09-23T14:11:08.019Z,47.40
2022-09-23T14:13:42.001Z,47.04
2022-09-23T14:16:12.615Z,47.83
2022-09-23T14:18:42.909Z,48.50
2022-09-23T14:21:35.333Z,48.12
2022-09-23T14:24:30.115Z,47.68
2022-09-23T14:27:00.784Z,48.57
2022-09-23T14:29:31.712Z,47.95
2022-09-23T14:32:07.624Z,49.01
2022-09-23T14:34:46.657Z,48.41
2022-09-23T14:37:47.957Z,49.00
2022-09-23T14:40:20.734Z,48.83
2022-09-23T14:42:56.672Z,49.33
2022-09-23T14:45:27.200Z,49.45
2022-09-23T14:47:57.968Z,49.51
2022-09-23T14:50:40.554Z,49.55
2022-09-23T14:53:40.651Z,49.95
2022-09-23T14:56:07.064Z,50.98
2022-09-23T14:58:52.821Z,51.94
2022-09-23T15:01:30.547Z,50.84
2022-09-23T15:04:09.215Z,52.15
2022-09-23T15:06:38.271Z,51.62
2022-09-23T15:09:06.823Z,52.28
2022-09-23T15:11:36.164Z,51.52
2022-09-23T15:14:26.338Z,51.83
2022-09-23T15:16:51.407Z,50.86
2022-09-23T15:19:20.791Z,51.57
2022-09-23T15:21:51.463Z,51.62
2022-09-23T15:24:41.114Z,52.23
2022-09-23T15:27:34.780Z,52.41
2022-09-23T15:30:17.448Z,52.63
2022-09-23T15:32:47.308Z,52.98
2022-09-23T15:35:21.180Z,53.55
2022-09-23T15:37:50.031Z,53.42
2022-09-23T15:40:29.099Z,54.06
2022-09-23T15:43:07.462Z,54.23
2022-09-23T15:45:36.995Z,53.89
2022-09-23T15:48:11.129Z,54.20
2022-09-23T15:50:38.297Z,54.68
2022-09-23T15:53:06.422Z,55.28
2022-09-23T15:55:33.649Z,55.39
2022-09-23T15:58:00.705Z,55.43
2022-09-23T16:00:27.411Z,55.76
2022-09-23T16:02:54.090Z,56.10
2022-09-23T16:05:23.361Z,56.42
2022-09-23T16:07:52.294Z,56.85
2022-09-23T16:10:20.951Z,56.90
2022-09-23T16:12:48.485Z,56.71
2022-09-23T16:15:18.965Z,57.13
2022-09-23T16:17:45.295Z,57.28
2022-09-23T16:20:15.340Z,57.46
2022-09-23T16:22:41.835Z,57.72
2022-09-23T16:25:11.978Z,57.78
2022-09-23T16:27:40.357Z,58.69
2022-09-23T16:30:07.973Z,59.89
2022-09-23T16:32:34.551Z,61.69
2022-09-23T16:35:01.093Z,61.54
2022-09-23T16:37:27.692Z,62.57
2022-09-23T16:39:54.861Z,63.73
2022-09-23T16:42:21.857Z,64.22
2022-09-23T16:44:48.354Z,65.46
2022-09-23T16:47:16.036Z,65.87
2022-09-23T16:49:42.571Z,65.70
2022-09-23T16:52:13.950Z,66.89
2022-09-23T16:54:42.242Z,67.01
2022-09-23T16:57:09.644Z,67.61
2022-09-23T16:59:54.454Z,68.01
2022-09-23T17:02:39.693Z,68.53
2022-09-23T17:05:06.512Z,68.95
2022-09-23T17:07:33.044Z,69.28
2022-09-23T17:09:59.848Z,70.51
2022-09-23T17:12:32.301Z,70.84
2022-09-23T17:14:59.196Z,70.74
2022-09-23T17:17:25.926Z,70.36
2022-09-23T17:19:52.389Z,72.42
2022-09-23T17:22:22.215Z,72.45
2022-09-23T17:24:48.801Z,72.96
2022-09-23T17:27:17.114Z,72.88
2022-09-23T17:29:44.473Z,73.10
2022-09-23T17:32:11.291Z,73.62
2022-09-23T17:34:37.861Z,74.26
2022-09-23T17:37:04.415Z,74.99
2022-09-23T17:39:31.672Z,75.58
2022-09-23T17:41:58.565Z,75.46
2022-09-23T17:44:26.791Z,75.62
2022-09-23T17:46:53.417Z,75.65
2022-09-23T17:49:24.426Z,76.36
2022-09-23T17:51:50.986Z,76.56
2022-09-23T17:54:17.479Z,76.03
2022-09-23T17:56:43.995Z,76.33
2022-09-23T17:59:14.977Z,76.56
2022-09-23T18:01:41.711Z,76.23
2022-09-23T18:04:08.323Z,77.18
2022-09-23T18:06:37.017Z,77.63
2022-09-23T18:09:05.578Z,77.55
2022-09-23T18:11:39.399Z,77.58
2022-09-23T18:14:26.196Z,77.71
2022-09-23T18:16:53.698Z,76.68
2022-09-23T18:19:22.505Z,77.42
2022-09-23T18:21:51.416Z,76.89
2022-09-23T18:24:31.922Z,77.73
2022-09-23T18:27:01.860Z,77.92
2022-09-23T18:29:28.581Z,78.28
2022-09-23T18:31:55.476Z,78.46
2022-09-23T18:34:22.608Z,79.35
2022-09-23T18:36:49.121Z,79.65
2022-09-23T18:39:15.662Z,78.71
2022-09-23T18:41:42.438Z,79.36
2022-09-23T18:44:09.617Z,79.36
2022-09-23T18:46:36.368Z,79.44
2022-09-23T18:49:22.174Z,79.17
2022-09-23T18:51:51.806Z,79.49
2022-09-23T18:54:19.648Z,79.28
2022-09-23T18:56:46.965Z,79.40
2022-09-23T18:59:19.591Z,79.78
2022-09-23T19:01:48.673Z,79.46
2022-09-23T19:04:20.133Z,79.76
2022-09-23T19:06:46.880Z,79.34
2022-09-23T19:09:15.345Z,79.93
2022-09-23T19:11:42.894Z,80.54
2022-09-23T19:14:11.544Z,80.38
2022-09-23T19:16:39.688Z,80.72
2022-09-23T19:19:06.744Z,80.74
2022-09-23T19:21:33.852Z,80.75
2022-09-23T19:24:05.847Z,80.11
2022-09-23T19:26:40.639Z,80.00
2022-09-23T19:29:08.792Z,80.69
2022-09-23T19:31:41.789Z,80.43
2022-09-23T19:34:15.965Z,81.09
2022-09-23T19:36:45.881Z,80.80
2022-09-23T19:39:17.334Z,80.97
2022-09-23T19:41:44.742Z,80.47
2022-09-23T19:44:11.808Z,80.73
2022-09-23T19:46:40.928Z,80.34
2022-09-23T19:49:08.143Z,80.65
2022-09-23T19:51:35.361Z,81.32
2022-09-23T19:54:03.650Z,81.02
2022-09-23T19:56:31.878Z,80.16
2022-09-23T19:58:59.263Z,80.59
2022-09-23T20:01:27.425Z,80.33
2022-09-23T20:03:53.906Z,81.31
2022-09-23T20:06:21.213Z,80.72
2022-09-23T20:08:49.553Z,80.27
2022-09-23T20:11:26.155Z,81.21
2022-09-23T20:14:04.500Z,80.76
2022-09-23T20:16:33.976Z,81.04
2022-09-23T20:19:01.286Z,81.73
2022-09-23T20:21:29.366Z,81.46
2022-09-23T20:23:56.833Z,81.46
2022-09-23T20:26:41.641Z,80.94
2022-09-23T20:29:09.087Z,80.67
2022-09-23T20:31:35.840Z,79.93
2022-09-23T20:34:05.810Z,79.56
2022-09-23T20:36:33.963Z,79.80
2022-09-23T20:39:03.118Z,80.17
2022-09-23T20:41:31.640Z,80.25
2022-09-23T20:44:02.701Z,80.21
2022-09-23T20:46:30.350Z,80.76
2022-09-23T20:48:57.087Z,80.23
2022-09-23T20:51:25.081Z,80.42
2022-09-23T20:53:52.897Z,80.29
2022-09-23T20:56:23.060Z,80.36
2022-09-23T20:58:50.795Z,79.75
2022-09-23T21:01:17.589Z,80.14
2022-09-23T21:03:46.416Z,80.80
2022-09-23T21:06:14.885Z,80.84
2022-09-23T21:08:42.262Z,80.83
2022-09-23T21:11:15.031Z,81.09
2022-09-23T21:13:49.089Z,81.18
2022-09-23T21:16:17.181Z,80.45
2022-09-23T21:18:44.577Z,80.90
2022-09-23T21:21:12.274Z,81.23
2022-09-23T21:23:40.092Z,80.63
2022-09-23T21:26:09.305Z,80.99
2022-09-23T21:28:41.173Z,79.58
2022-09-23T21:31:10.775Z,81.62
2022-09-23T21:33:37.715Z,80.08
2022-09-23T21:36:06.508Z,80.49
2022-09-23T21:38:37.097Z,81.08
2022-09-23T21:41:04.536Z,81.01
2022-09-23T21:43:33.831Z,80.55
2022-09-23T21:46:05.926Z,80.24
2022-09-23T21:48:34.417Z,81.58
2022-09-23T21:51:03.849Z,81.66
2022-09-23T21:53:31.670Z,80.95
2022-09-23T21:56:15.712Z,81.21
2022-09-23T21:58:45.779Z,80.72
2022-09-23T22:01:13.917Z,79.78
2022-09-23T22:03:41.358Z,81.05
2022-09-23T22:06:11.173Z,80.77
2022-09-23T22:08:40.539Z,80.50
2022-09-23T22:11:30.032Z,81.82
2022-09-23T22:13:57.840Z,81.46
2022-09-23T22:16:24.606Z,81.36
2022-09-23T22:18:55.248Z,80.50
2022-09-23T22:21:23.238Z,79.20
2022-09-23T22:23:54.100Z,81.91
2022-09-23T22:26:20.635Z,81.27
2022-09-23T22:29:05.721Z,81.59
2022-09-23T22:31:51.052Z,81.77
2022-09-23T22:34:47.537Z,81.83
2022-09-23T22:37:06.691Z,82.89
2022-09-23T22:39:33.454Z,82.80
2022-09-23T22:42:00.152Z,81.83
2022-09-23T22:44:26.807Z,82.34
2022-09-23T22:46:53.749Z,82.71
2022-09-23T22:49:20.422Z,82.27
2022-09-23T22:51:47.163Z,83.24
2022-09-23T22:54:13.785Z,83.09
2022-09-23T22:56:40.383Z,81.16
2022-09-23T22:59:08.759Z,82.44
2022-09-23T23:01:35.742Z,82.71
2022-09-23T23:04:02.467Z,82.11
2022-09-23T23:06:35.907Z,81.77
2022-09-23T23:09:19.014Z,80.77
2022-09-23T23:11:45.720Z,82.18
2022-09-23T23:14:14.268Z,82.82
2022-09-23T23:16:40.852Z,82.95
2022-09-23T23:19:09.974Z,82.80
2022-09-23T23:21:37.122Z,83.49
2022-09-23T23:24:04.858Z,83.56
2022-09-23T23:26:33.149Z,83.07
2022-09-23T23:29:00.737Z,82.49
2022-09-23T23:31:28.860Z,83.04
2022-09-23T23:33:55.398Z,83.04
2022-09-23T23:36:23.206Z,82.81
2022-09-23T23:38:54.206Z,82.83
2022-09-23T23:41:22.626Z,83.73
2022-09-23T23:43:55.348Z,82.76
2022-09-23T23:46:25.425Z,83.19
2022-09-23T23:48:53.303Z,83.33
2022-09-23T23:51:20.797Z,83.10
2022-09-23T23:53:48.257Z,84.43
2022-09-23T23:56:19.753Z,83.71
2022-09-23T23:58:46.556Z,84.09
